Terminal Aerodrome Forecast
Issued by NWS

Current Version | Previous Version | Graphics & Text | Print | Product List | Glossary On
Versions: 1 2 3 4 5 6 7 8 9 10 11 12 13 14 15 16 17 18 19 20
000
FTUS41 KPBZ 212000 AAB
TAFMGW
TAF AMD
KMGW 212051Z 2121/2218 24010G20KT P6SM SCT035
      TEMPO 2121/2122 4SM -SHRA BKN030
     FM220000 28010G15KT P6SM BKN040
     FM220100 31008KT P6SM BKN025=

USA.gov is the U.S. government's official web portal to all federal, state and local government web resources and services.